sensor_id;sensor_type;location;lat;lon;timestamp;P1;durP1;ratioP1;P2;durP2;ratioP2
12896;SDS011;6516;35.028;32.372;2023-10-13T00:01:53;9.60;;;4.15;;
12896;SDS011;6516;35.028;32.372;2023-10-13T00:04:24;8.82;;;4.22;;
12896;SDS011;6516;35.028;32.372;2023-10-13T00:06:51;6.93;;;3.93;;
12896;SDS011;6516;35.028;32.372;2023-10-13T00:09:21;7.03;;;4.18;;
12896;SDS011;6516;35.028;32.372;2023-10-13T00:11:52;8.30;;;4.32;;
12896;SDS011;6516;35.028;32.372;2023-10-13T00:14:21;10.52;;;4.57;;
12896;SDS011;6516;35.028;32.372;2023-10-13T00:16:57;8.60;;;4.25;;
12896;SDS011;6516;35.028;32.372;2023-10-13T00:19:30;10.03;;;4.23;;
12896;SDS011;6516;35.028;32.372;2023-10-13T00:22:10;6.20;;;3.85;;
12896;SDS011;6516;35.028;32.372;2023-10-13T00:24:41;8.88;;;4.30;;
12896;SDS011;6516;35.028;32.372;2023-10-13T00:27:13;8.85;;;4.50;;
12896;SDS011;6516;35.028;32.372;2023-10-13T00:29:55;9.40;;;4.22;;
12896;SDS011;6516;35.028;32.372;2023-10-13T00:32:42;9.30;;;3.77;;
12896;SDS011;6516;35.028;32.372;2023-10-13T00:35:12;7.22;;;4.03;;
12896;SDS011;6516;35.028;32.372;2023-10-13T00:37:50;9.10;;;4.47;;
12896;SDS011;6516;35.028;32.372;2023-10-13T00:40:19;9.80;;;4.28;;
12896;SDS011;6516;35.028;32.372;2023-10-13T00:43:06;7.03;;;4.50;;
12896;SDS011;6516;35.028;32.372;2023-10-13T00:45:48;10.27;;;4.47;;
12896;SDS011;6516;35.028;32.372;2023-10-13T00:48:22;11.13;;;4.45;;
12896;SDS011;6516;35.028;32.372;2023-10-13T00:50:55;9.40;;;4.68;;
12896;SDS011;6516;35.028;32.372;2023-10-13T00:53:28;8.32;;;4.50;;
12896;SDS011;6516;35.028;32.372;2023-10-13T00:55:58;9.48;;;4.35;;
12896;SDS011;6516;35.028;32.372;2023-10-13T00:58:34;11.17;;;4.70;;
12896;SDS011;6516;35.028;32.372;2023-10-13T01:01:00;10.23;;;4.70;;
12896;SDS011;6516;35.028;32.372;2023-10-13T01:03:42;8.93;;;4.50;;
12896;SDS011;6516;35.028;32.372;2023-10-13T01:06:13;11.23;;;4.93;;
12896;SDS011;6516;35.028;32.372;2023-10-13T01:08:45;11.60;;;4.65;;
12896;SDS011;6516;35.028;32.372;2023-10-13T01:11:17;8.10;;;4.40;;
12896;SDS011;6516;35.028;32.372;2023-10-13T01:13:46;9.52;;;4.30;;
12896;SDS011;6516;35.028;32.372;2023-10-13T01:16:16;9.07;;;4.13;;
12896;SDS011;6516;35.028;32.372;2023-10-13T01:18:43;7.97;;;4.78;;
12896;SDS011;6516;35.028;32.372;2023-10-13T01:21:14;10.38;;;4.60;;
12896;SDS011;6516;35.028;32.372;2023-10-13T01:23:44;10.47;;;4.80;;
12896;SDS011;6516;35.028;32.372;2023-10-13T01:26:13;7.63;;;4.50;;
12896;SDS011;6516;35.028;32.372;2023-10-13T01:28:46;9.50;;;5.05;;
12896;SDS011;6516;35.028;32.372;2023-10-13T01:31:14;10.05;;;4.55;;
12896;SDS011;6516;35.028;32.372;2023-10-13T01:33:51;9.60;;;5.07;;
12896;SDS011;6516;35.028;32.372;2023-10-13T01:36:21;9.90;;;4.77;;
12896;SDS011;6516;35.028;32.372;2023-10-13T01:38:49;8.02;;;4.50;;
12896;SDS011;6516;35.028;32.372;2023-10-13T01:41:18;10.25;;;4.78;;
12896;SDS011;6516;35.028;32.372;2023-10-13T01:43:45;9.70;;;4.95;;
12896;SDS011;6516;35.028;32.372;2023-10-13T01:46:14;11.00;;;5.03;;
12896;SDS011;6516;35.028;32.372;2023-10-13T01:48:41;11.43;;;5.10;;
12896;SDS011;6516;35.028;32.372;2023-10-13T01:51:11;11.27;;;5.10;;
12896;SDS011;6516;35.028;32.372;2023-10-13T01:53:38;8.90;;;5.00;;
12896;SDS011;6516;35.028;32.372;2023-10-13T01:56:09;8.98;;;4.85;;
12896;SDS011;6516;35.028;32.372;2023-10-13T01:58:36;8.50;;;4.65;;
12896;SDS011;6516;35.028;32.372;2023-10-13T02:01:07;9.47;;;4.80;;
12896;SDS011;6516;35.028;32.372;2023-10-13T02:03:35;12.05;;;5.35;;
12896;SDS011;6516;35.028;32.372;2023-10-13T02:06:07;9.30;;;4.80;;
12896;SDS011;6516;35.028;32.372;2023-10-13T02:08:42;9.55;;;5.30;;
12896;SDS011;6516;35.028;32.372;2023-10-13T02:11:14;9.05;;;4.97;;
12896;SDS011;6516;35.028;32.372;2023-10-13T02:13:43;8.20;;;5.43;;
12896;SDS011;6516;35.028;32.372;2023-10-13T02:16:16;9.10;;;5.00;;
12896;SDS011;6516;35.028;32.372;2023-10-13T02:18:46;13.13;;;5.20;;
12896;SDS011;6516;35.028;32.372;2023-10-13T02:21:16;8.80;;;5.30;;
12896;SDS011;6516;35.028;32.372;2023-10-13T02:23:43;10.02;;;5.40;;
12896;SDS011;6516;35.028;32.372;2023-10-13T02:26:26;10.43;;;5.27;;
12896;SDS011;6516;35.028;32.372;2023-10-13T02:28:56;10.70;;;5.50;;
12896;SDS011;6516;35.028;32.372;2023-10-13T02:31:27;10.10;;;4.95;;
12896;SDS011;6516;35.028;32.372;2023-10-13T02:33:54;10.50;;;5.15;;
12896;SDS011;6516;35.028;32.372;2023-10-13T02:36:21;10.48;;;5.20;;
12896;SDS011;6516;35.028;32.372;2023-10-13T02:39:01;10.43;;;5.40;;
12896;SDS011;6516;35.028;32.372;2023-10-13T02:41:34;8.93;;;5.10;;
12896;SDS011;6516;35.028;32.372;2023-10-13T02:44:02;10.68;;;5.38;;
12896;SDS011;6516;35.028;32.372;2023-10-13T02:46:33;12.55;;;5.93;;
12896;SDS011;6516;35.028;32.372;2023-10-13T02:49:02;11.73;;;5.85;;
12896;SDS011;6516;35.028;32.372;2023-10-13T02:51:35;12.50;;;6.50;;
12896;SDS011;6516;35.028;32.372;2023-10-13T02:54:03;11.88;;;7.13;;
12896;SDS011;6516;35.028;32.372;2023-10-13T02:56:37;13.38;;;6.85;;
12896;SDS011;6516;35.028;32.372;2023-10-13T02:59:13;10.88;;;6.72;;
12896;SDS011;6516;35.028;32.372;2023-10-13T03:01:44;10.93;;;7.05;;
12896;SDS011;6516;35.028;32.372;2023-10-13T03:04:11;12.90;;;7.27;;
12896;SDS011;6516;35.028;32.372;2023-10-13T03:06:40;14.20;;;8.02;;
12896;SDS011;6516;35.028;32.372;2023-10-13T03:09:07;13.80;;;8.27;;
12896;SDS011;6516;35.028;32.372;2023-10-13T03:11:45;15.50;;;9.05;;
12896;SDS011;6516;35.028;32.372;2023-10-13T03:14:14;18.42;;;9.40;;
12896;SDS011;6516;35.028;32.372;2023-10-13T03:16:51;15.93;;;9.70;;
12896;SDS011;6516;35.028;32.372;2023-10-13T03:19:18;13.48;;;8.80;;
12896;SDS011;6516;35.028;32.372;2023-10-13T03:21:46;15.63;;;9.00;;
12896;SDS011;6516;35.028;32.372;2023-10-13T03:24:20;16.60;;;9.07;;
12896;SDS011;6516;35.028;32.372;2023-10-13T03:27:00;16.23;;;9.70;;
12896;SDS011;6516;35.028;32.372;2023-10-13T03:29:35;17.20;;;9.60;;
12896;SDS011;6516;35.028;32.372;2023-10-13T03:32:04;16.75;;;9.63;;
12896;SDS011;6516;35.028;32.372;2023-10-13T03:34:37;14.25;;;8.85;;
12896;SDS011;6516;35.028;32.372;2023-10-13T03:37:15;16.40;;;9.77;;
12896;SDS011;6516;35.028;32.372;2023-10-13T03:40:02;16.73;;;9.95;;
12896;SDS011;6516;35.028;32.372;2023-10-13T03:42:42;18.73;;;9.87;;
12896;SDS011;6516;35.028;32.372;2023-10-13T03:45:23;15.07;;;10.57;;
12896;SDS011;6516;35.028;32.372;2023-10-13T03:47:51;14.88;;;10.75;;
12896;SDS011;6516;35.028;32.372;2023-10-13T03:50:19;17.73;;;10.15;;
12896;SDS011;6516;35.028;32.372;2023-10-13T03:52:54;15.88;;;10.27;;
12896;SDS011;6516;35.028;32.372;2023-10-13T03:55:23;14.67;;;10.37;;
12896;SDS011;6516;35.028;32.372;2023-10-13T03:57:54;18.88;;;11.55;;
12896;SDS011;6516;35.028;32.372;2023-10-13T04:00:24;14.68;;;11.30;;
12896;SDS011;6516;35.028;32.372;2023-10-13T04:02:53;16.35;;;12.23;;
12896;SDS011;6516;35.028;32.372;2023-10-13T04:05:33;22.02;;;12.02;;
12896;SDS011;6516;35.028;32.372;2023-10-13T04:08:06;17.63;;;12.53;;
12896;SDS011;6516;35.028;32.372;2023-10-13T04:10:52;21.40;;;12.93;;
12896;SDS011;6516;35.028;32.372;2023-10-13T04:13:39;22.85;;;14.02;;
12896;SDS011;6516;35.028;32.372;2023-10-13T04:16:24;18.55;;;13.23;;
12896;SDS011;6516;35.028;32.372;2023-10-13T04:19:01;21.52;;;13.10;;
12896;SDS011;6516;35.028;32.372;2023-10-13T04:21:44;20.37;;;12.43;;
12896;SDS011;6516;35.028;32.372;2023-10-13T04:24:23;21.48;;;13.65;;
12896;SDS011;6516;35.028;32.372;2023-10-13T04:27:24;22.30;;;13.25;;
12896;SDS011;6516;35.028;32.372;2023-10-13T04:30:11;19.08;;;13.60;;
12896;SDS011;6516;35.028;32.372;2023-10-13T04:32:52;20.92;;;14.18;;
12896;SDS011;6516;35.028;32.372;2023-10-13T04:36:01;24.87;;;14.90;;
12896;SDS011;6516;35.028;32.372;2023-10-13T04:38:39;26.00;;;15.00;;
12896;SDS011;6516;35.028;32.372;2023-10-13T04:41:21;21.45;;;14.60;;
12896;SDS011;6516;35.028;32.372;2023-10-13T04:43:57;20.60;;;14.25;;
12896;SDS011;6516;35.028;32.372;2023-10-13T04:46:31;23.75;;;14.80;;
12896;SDS011;6516;35.028;32.372;2023-10-13T04:49:33;25.37;;;14.17;;
12896;SDS011;6516;35.028;32.372;2023-10-13T04:52:17;35.25;;;14.93;;
12896;SDS011;6516;35.028;32.372;2023-10-13T04:55:03;28.67;;;14.38;;
12896;SDS011;6516;35.028;32.372;2023-10-13T04:58:08;24.23;;;13.30;;
12896;SDS011;6516;35.028;32.372;2023-10-13T05:00:53;22.05;;;13.98;;
12896;SDS011;6516;35.028;32.372;2023-10-13T05:03:38;18.07;;;13.23;;
12896;SDS011;6516;35.028;32.372;2023-10-13T05:06:43;35.80;;;14.98;;
12896;SDS011;6516;35.028;32.372;2023-10-13T05:09:28;22.33;;;14.07;;
12896;SDS011;6516;35.028;32.372;2023-10-13T05:12:12;23.23;;;13.85;;
12896;SDS011;6516;35.028;32.372;2023-10-13T05:14:57;16.75;;;12.98;;
12896;SDS011;6516;35.028;32.372;2023-10-13T05:17:42;15.93;;;12.97;;
12896;SDS011;6516;35.028;32.372;2023-10-13T05:20:28;18.50;;;12.07;;
12896;SDS011;6516;35.028;32.372;2023-10-13T05:23:13;16.42;;;13.02;;
12896;SDS011;6516;35.028;32.372;2023-10-13T05:26:00;15.65;;;12.90;;
12896;SDS011;6516;35.028;32.372;2023-10-13T05:29:00;16.65;;;12.05;;
12896;SDS011;6516;35.028;32.372;2023-10-13T05:31:45;16.80;;;12.07;;
12896;SDS011;6516;35.028;32.372;2023-10-13T05:34:30;16.02;;;11.75;;
12896;SDS011;6516;35.028;32.372;2023-10-13T05:37:16;13.40;;;10.82;;
12896;SDS011;6516;35.028;32.372;2023-10-13T05:40:01;14.80;;;11.00;;
12896;SDS011;6516;35.028;32.372;2023-10-13T05:42:46;13.40;;;10.73;;
12896;SDS011;6516;35.028;32.372;2023-10-13T05:45:31;15.93;;;11.20;;
12896;SDS011;6516;35.028;32.372;2023-10-13T05:48:26;14.27;;;10.48;;
12896;SDS011;6516;35.028;32.372;2023-10-13T05:51:17;14.40;;;10.02;;
12896;SDS011;6516;35.028;32.372;2023-10-13T05:54:10;12.55;;;9.55;;
12896;SDS011;6516;35.028;32.372;2023-10-13T05:56:55;13.15;;;9.70;;
12896;SDS011;6516;35.028;32.372;2023-10-13T05:59:41;12.90;;;9.00;;
12896;SDS011;6516;35.028;32.372;2023-10-13T06:02:26;13.40;;;9.30;;
12896;SDS011;6516;35.028;32.372;2023-10-13T06:05:11;13.52;;;8.90;;
12896;SDS011;6516;35.028;32.372;2023-10-13T06:07:57;12.05;;;8.60;;
12896;SDS011;6516;35.028;32.372;2023-10-13T06:10:44;13.35;;;8.85;;
12896;SDS011;6516;35.028;32.372;2023-10-13T06:13:29;13.53;;;8.60;;
12896;SDS011;6516;35.028;32.372;2023-10-13T06:16:14;13.13;;;8.75;;
12896;SDS011;6516;35.028;32.372;2023-10-13T06:19:00;11.85;;;8.18;;
12896;SDS011;6516;35.028;32.372;2023-10-13T06:21:45;13.65;;;8.80;;
12896;SDS011;6516;35.028;32.372;2023-10-13T06:24:31;11.85;;;8.27;;
12896;SDS011;6516;35.028;32.372;2023-10-13T06:27:17;13.77;;;8.37;;
12896;SDS011;6516;35.028;32.372;2023-10-13T06:30:02;13.02;;;7.80;;
12896;SDS011;6516;35.028;32.372;2023-10-13T06:32:31;13.15;;;7.80;;
12896;SDS011;6516;35.028;32.372;2023-10-13T06:34:59;11.50;;;7.95;;
12896;SDS011;6516;35.028;32.372;2023-10-13T06:37:31;12.80;;;7.55;;
12896;SDS011;6516;35.028;32.372;2023-10-13T06:40:02;12.03;;;7.40;;
12896;SDS011;6516;35.028;32.372;2023-10-13T06:42:49;10.15;;;6.95;;
12896;SDS011;6516;35.028;32.372;2023-10-13T06:45:18;11.43;;;7.45;;
12896;SDS011;6516;35.028;32.372;2023-10-13T06:47:47;11.60;;;7.80;;
12896;SDS011;6516;35.028;32.372;2023-10-13T06:50:18;13.80;;;7.40;;
12896;SDS011;6516;35.028;32.372;2023-10-13T06:52:49;10.37;;;6.97;;
12896;SDS011;6516;35.028;32.372;2023-10-13T06:55:20;9.40;;;6.80;;
12896;SDS011;6516;35.028;32.372;2023-10-13T06:57:54;12.85;;;7.00;;
12896;SDS011;6516;35.028;32.372;2023-10-13T07:00:25;12.65;;;7.30;;
12896;SDS011;6516;35.028;32.372;2023-10-13T07:02:55;11.18;;;7.07;;
12896;SDS011;6516;35.028;32.372;2023-10-13T07:05:33;11.80;;;7.30;;
12896;SDS011;6516;35.028;32.372;2023-10-13T07:08:04;14.40;;;7.43;;
12896;SDS011;6516;35.028;32.372;2023-10-13T07:10:34;12.32;;;7.93;;
12896;SDS011;6516;35.028;32.372;2023-10-13T07:13:11;10.50;;;7.30;;
12896;SDS011;6516;35.028;32.372;2023-10-13T07:15:39;13.95;;;7.30;;
12896;SDS011;6516;35.028;32.372;2023-10-13T07:18:11;11.53;;;7.20;;
12896;SDS011;6516;35.028;32.372;2023-10-13T07:20:41;12.27;;;7.43;;
12896;SDS011;6516;35.028;32.372;2023-10-13T07:23:12;13.10;;;6.97;;
12896;SDS011;6516;35.028;32.372;2023-10-13T07:25:51;11.43;;;7.05;;
12896;SDS011;6516;35.028;32.372;2023-10-13T07:28:22;11.85;;;6.80;;
12896;SDS011;6516;35.028;32.372;2023-10-13T07:30:49;12.17;;;7.30;;
12896;SDS011;6516;35.028;32.372;2023-10-13T07:33:37;12.30;;;6.85;;
12896;SDS011;6516;35.028;32.372;2023-10-13T07:36:06;10.60;;;6.40;;
12896;SDS011;6516;35.028;32.372;2023-10-13T07:38:43;11.60;;;6.85;;
12896;SDS011;6516;35.028;32.372;2023-10-13T07:41:14;11.65;;;6.78;;
12896;SDS011;6516;35.028;32.372;2023-10-13T07:43:44;11.23;;;6.77;;
12896;SDS011;6516;35.028;32.372;2023-10-13T07:46:14;14.60;;;7.28;;
12896;SDS011;6516;35.028;32.372;2023-10-13T07:48:42;10.07;;;7.07;;
12896;SDS011;6516;35.028;32.372;2023-10-13T07:51:10;13.10;;;6.88;;
12896;SDS011;6516;35.028;32.372;2023-10-13T07:53:41;13.60;;;6.80;;
12896;SDS011;6516;35.028;32.372;2023-10-13T07:56:10;11.03;;;6.43;;
12896;SDS011;6516;35.028;32.372;2023-10-13T07:58:38;11.88;;;7.18;;
12896;SDS011;6516;35.028;32.372;2023-10-13T08:01:19;13.50;;;7.07;;
12896;SDS011;6516;35.028;32.372;2023-10-13T08:03:47;11.82;;;6.90;;
12896;SDS011;6516;35.028;32.372;2023-10-13T08:06:22;12.32;;;7.35;;
12896;SDS011;6516;35.028;32.372;2023-10-13T08:08:53;13.07;;;6.57;;
12896;SDS011;6516;35.028;32.372;2023-10-13T08:11:32;11.18;;;6.78;;
12896;SDS011;6516;35.028;32.372;2023-10-13T08:14:03;11.82;;;6.65;;
12896;SDS011;6516;35.028;32.372;2023-10-13T08:16:39;10.43;;;6.82;;
12896;SDS011;6516;35.028;32.372;2023-10-13T08:19:18;12.23;;;6.38;;
12896;SDS011;6516;35.028;32.372;2023-10-13T08:21:52;13.40;;;7.13;;
12896;SDS011;6516;35.028;32.372;2023-10-13T08:24:24;13.13;;;7.20;;
12896;SDS011;6516;35.028;32.372;2023-10-13T08:27:13;17.02;;;7.22;;
12896;SDS011;6516;35.028;32.372;2023-10-13T08:29:56;10.00;;;6.38;;
12896;SDS011;6516;35.028;32.372;2023-10-13T08:32:42;15.13;;;7.53;;
12896;SDS011;6516;35.028;32.372;2023-10-13T08:35:22;15.03;;;6.83;;
12896;SDS011;6516;35.028;32.372;2023-10-13T08:38:04;13.60;;;6.78;;
12896;SDS011;6516;35.028;32.372;2023-10-13T08:40:43;11.60;;;6.75;;
12896;SDS011;6516;35.028;32.372;2023-10-13T08:43:37;10.05;;;6.80;;
12896;SDS011;6516;35.028;32.372;2023-10-13T08:46:10;12.95;;;6.75;;
12896;SDS011;6516;35.028;32.372;2023-10-13T08:48:56;14.40;;;7.10;;
12896;SDS011;6516;35.028;32.372;2023-10-13T08:51:33;12.18;;;7.10;;
12896;SDS011;6516;35.028;32.372;2023-10-13T08:54:14;11.70;;;6.82;;
12896;SDS011;6516;35.028;32.372;2023-10-13T08:56:46;11.80;;;6.30;;
12896;SDS011;6516;35.028;32.372;2023-10-13T08:59:21;11.68;;;6.93;;
12896;SDS011;6516;35.028;32.372;2023-10-13T09:01:58;12.57;;;7.03;;
12896;SDS011;6516;35.028;32.372;2023-10-13T09:04:43;10.35;;;6.80;;
12896;SDS011;6516;35.028;32.372;2023-10-13T09:07:10;12.55;;;6.90;;
12896;SDS011;6516;35.028;32.372;2023-10-13T09:09:47;15.32;;;6.57;;
12896;SDS011;6516;35.028;32.372;2023-10-13T09:12:25;10.32;;;6.90;;
12896;SDS011;6516;35.028;32.372;2023-10-13T09:15:29;10.27;;;6.97;;
12896;SDS011;6516;35.028;32.372;2023-10-13T09:18:11;8.55;;;6.47;;
12896;SDS011;6516;35.028;32.372;2023-10-13T09:20:43;12.55;;;6.25;;
12896;SDS011;6516;35.028;32.372;2023-10-13T09:23:12;11.35;;;6.10;;
12896;SDS011;6516;35.028;32.372;2023-10-13T09:25:49;13.57;;;6.65;;
12896;SDS011;6516;35.028;32.372;2023-10-13T09:28:23;14.37;;;6.50;;
12896;SDS011;6516;35.028;32.372;2023-10-13T09:30:53;11.68;;;6.90;;
12896;SDS011;6516;35.028;32.372;2023-10-13T09:33:26;14.13;;;6.57;;
12896;SDS011;6516;35.028;32.372;2023-10-13T09:35:59;11.20;;;7.30;;
12896;SDS011;6516;35.028;32.372;2023-10-13T09:38:30;10.30;;;6.43;;
12896;SDS011;6516;35.028;32.372;2023-10-13T09:40:59;11.30;;;6.60;;
12896;SDS011;6516;35.028;32.372;2023-10-13T09:43:43;12.40;;;6.30;;
12896;SDS011;6516;35.028;32.372;2023-10-13T09:46:10;10.02;;;6.10;;
12896;SDS011;6516;35.028;32.372;2023-10-13T09:48:44;10.48;;;6.40;;
12896;SDS011;6516;35.028;32.372;2023-10-13T09:51:14;11.13;;;6.40;;
12896;SDS011;6516;35.028;32.372;2023-10-13T09:53:47;12.70;;;6.13;;
12896;SDS011;6516;35.028;32.372;2023-10-13T09:56:24;11.10;;;6.60;;
12896;SDS011;6516;35.028;32.372;2023-10-13T09:58:58;10.85;;;6.10;;
12896;SDS011;6516;35.028;32.372;2023-10-13T10:01:34;10.20;;;6.60;;
12896;SDS011;6516;35.028;32.372;2023-10-13T10:04:17;14.48;;;6.63;;
12896;SDS011;6516;35.028;32.372;2023-10-13T10:06:53;13.80;;;6.63;;
12896;SDS011;6516;35.028;32.372;2023-10-13T10:09:26;11.80;;;6.38;;
12896;SDS011;6516;35.028;32.372;2023-10-13T10:12:07;12.27;;;6.45;;
12896;SDS011;6516;35.028;32.372;2023-10-13T10:17:53;11.23;;;6.38;;
12896;SDS011;6516;35.028;32.372;2023-10-13T10:20:27;10.73;;;5.93;;
12896;SDS011;6516;35.028;32.372;2023-10-13T10:23:22;12.63;;;6.03;;
12896;SDS011;6516;35.028;32.372;2023-10-13T10:25:52;11.95;;;6.20;;
12896;SDS011;6516;35.028;32.372;2023-10-13T10:28:36;16.45;;;6.72;;
12896;SDS011;6516;35.028;32.372;2023-10-13T10:31:07;12.07;;;6.65;;
12896;SDS011;6516;35.028;32.372;2023-10-13T10:33:38;13.73;;;6.90;;
12896;SDS011;6516;35.028;32.372;2023-10-13T10:36:06;11.07;;;6.03;;
12896;SDS011;6516;35.028;32.372;2023-10-13T10:38:52;13.50;;;6.65;;
12896;SDS011;6516;35.028;32.372;2023-10-13T10:41:27;9.75;;;6.38;;
12896;SDS011;6516;35.028;32.372;2023-10-13T10:44:09;14.75;;;6.40;;
12896;SDS011;6516;35.028;32.372;2023-10-13T10:46:42;11.43;;;6.83;;
12896;SDS011;6516;35.028;32.372;2023-10-13T10:49:22;10.23;;;6.13;;
12896;SDS011;6516;35.028;32.372;2023-10-13T10:51:57;11.27;;;6.38;;
12896;SDS011;6516;35.028;32.372;2023-10-13T10:54:36;11.80;;;6.28;;
12896;SDS011;6516;35.028;32.372;2023-10-13T10:57:09;11.95;;;5.97;;
12896;SDS011;6516;35.028;32.372;2023-10-13T10:59:43;11.80;;;6.63;;
12896;SDS011;6516;35.028;32.372;2023-10-13T11:02:11;10.77;;;6.45;;
12896;SDS011;6516;35.028;32.372;2023-10-13T11:04:43;11.45;;;5.97;;
12896;SDS011;6516;35.028;32.372;2023-10-13T11:07:22;11.30;;;6.55;;
12896;SDS011;6516;35.028;32.372;2023-10-13T11:09:52;12.00;;;6.38;;
12896;SDS011;6516;35.028;32.372;2023-10-13T11:12:32;13.70;;;6.43;;
12896;SDS011;6516;35.028;32.372;2023-10-13T11:15:01;14.27;;;6.13;;
12896;SDS011;6516;35.028;32.372;2023-10-13T11:17:39;11.75;;;5.80;;
12896;SDS011;6516;35.028;32.372;2023-10-13T11:20:16;11.77;;;6.05;;
12896;SDS011;6516;35.028;32.372;2023-10-13T11:22:51;10.80;;;5.90;;
12896;SDS011;6516;35.028;32.372;2023-10-13T11:25:21;9.53;;;5.40;;
12896;SDS011;6516;35.028;32.372;2023-10-13T11:27:55;9.73;;;5.78;;
12896;SDS011;6516;35.028;32.372;2023-10-13T11:30:24;13.30;;;6.03;;
12896;SDS011;6516;35.028;32.372;2023-10-13T11:33:07;10.55;;;5.85;;
12896;SDS011;6516;35.028;32.372;2023-10-13T11:35:37;10.23;;;5.47;;
12896;SDS011;6516;35.028;32.372;2023-10-13T11:38:19;11.07;;;5.30;;
12896;SDS011;6516;35.028;32.372;2023-10-13T11:40:53;9.55;;;5.97;;
12896;SDS011;6516;35.028;32.372;2023-10-13T11:43:37;12.82;;;5.63;;
12896;SDS011;6516;35.028;32.372;2023-10-13T11:46:18;10.00;;;5.75;;
12896;SDS011;6516;35.028;32.372;2023-10-13T11:49:01;14.32;;;5.55;;
12896;SDS011;6516;35.028;32.372;2023-10-13T11:51:42;13.07;;;5.57;;
12896;SDS011;6516;35.028;32.372;2023-10-13T11:54:11;12.85;;;5.50;;
12896;SDS011;6516;35.028;32.372;2023-10-13T11:56:42;10.82;;;5.50;;
12896;SDS011;6516;35.028;32.372;2023-10-13T11:59:10;12.63;;;5.20;;
12896;SDS011;6516;35.028;32.372;2023-10-13T12:01:43;10.27;;;5.47;;
12896;SDS011;6516;35.028;32.372;2023-10-13T12:04:28;11.60;;;6.20;;
12896;SDS011;6516;35.028;32.372;2023-10-13T12:07:05;9.85;;;5.82;;
12896;SDS011;6516;35.028;32.372;2023-10-13T12:09:51;12.32;;;5.30;;
12896;SDS011;6516;35.028;32.372;2023-10-13T12:12:33;9.77;;;5.80;;
12896;SDS011;6516;35.028;32.372;2023-10-13T12:15:08;10.45;;;5.63;;
12896;SDS011;6516;35.028;32.372;2023-10-13T12:17:50;13.73;;;5.60;;
12896;SDS011;6516;35.028;32.372;2023-10-13T12:20:18;11.63;;;5.88;;
12896;SDS011;6516;35.028;32.372;2023-10-13T12:22:58;10.13;;;5.65;;
12896;SDS011;6516;35.028;32.372;2023-10-13T12:25:38;9.85;;;5.40;;
12896;SDS011;6516;35.028;32.372;2023-10-13T12:28:21;10.90;;;5.57;;
12896;SDS011;6516;35.028;32.372;2023-10-13T12:30:52;17.97;;;6.03;;
12896;SDS011;6516;35.028;32.372;2023-10-13T12:33:22;11.90;;;5.70;;
12896;SDS011;6516;35.028;32.372;2023-10-13T12:35:57;9.43;;;5.28;;
12896;SDS011;6516;35.028;32.372;2023-10-13T12:38:35;11.43;;;5.97;;
12896;SDS011;6516;35.028;32.372;2023-10-13T12:41:04;11.43;;;5.25;;
12896;SDS011;6516;35.028;32.372;2023-10-13T12:43:50;13.50;;;5.57;;
12896;SDS011;6516;35.028;32.372;2023-10-13T12:46:32;11.25;;;5.53;;
12896;SDS011;6516;35.028;32.372;2023-10-13T12:49:17;10.40;;;5.25;;
12896;SDS011;6516;35.028;32.372;2023-10-13T12:52:06;11.68;;;5.75;;
12896;SDS011;6516;35.028;32.372;2023-10-13T12:54:41;12.23;;;5.20;;
12896;SDS011;6516;35.028;32.372;2023-10-13T12:57:12;18.63;;;5.60;;
12896;SDS011;6516;35.028;32.372;2023-10-13T12:59:42;10.02;;;5.57;;
12896;SDS011;6516;35.028;32.372;2023-10-13T13:02:10;10.73;;;5.50;;
12896;SDS011;6516;35.028;32.372;2023-10-13T13:04:41;10.98;;;5.40;;
12896;SDS011;6516;35.028;32.372;2023-10-13T13:07:09;13.25;;;5.65;;
12896;SDS011;6516;35.028;32.372;2023-10-13T13:09:39;11.30;;;5.57;;
12896;SDS011;6516;35.028;32.372;2023-10-13T13:12:07;14.07;;;6.00;;
12896;SDS011;6516;35.028;32.372;2023-10-13T13:14:38;11.25;;;5.75;;
12896;SDS011;6516;35.028;32.372;2023-10-13T13:17:12;12.13;;;5.20;;
12896;SDS011;6516;35.028;32.372;2023-10-13T13:19:40;12.25;;;5.40;;
12896;SDS011;6516;35.028;32.372;2023-10-13T13:22:08;13.57;;;5.40;;
12896;SDS011;6516;35.028;32.372;2023-10-13T13:24:37;13.82;;;5.10;;
12896;SDS011;6516;35.028;32.372;2023-10-13T13:27:09;13.18;;;5.82;;
12896;SDS011;6516;35.028;32.372;2023-10-13T13:29:39;14.73;;;5.80;;
12896;SDS011;6516;35.028;32.372;2023-10-13T13:32:07;9.70;;;5.15;;
12896;SDS011;6516;35.028;32.372;2023-10-13T13:34:44;11.43;;;5.07;;
12896;SDS011;6516;35.028;32.372;2023-10-13T13:37:20;12.40;;;5.10;;
12896;SDS011;6516;35.028;32.372;2023-10-13T13:39:47;11.90;;;5.55;;
12896;SDS011;6516;35.028;32.372;2023-10-13T13:42:18;9.77;;;4.95;;
12896;SDS011;6516;35.028;32.372;2023-10-13T13:44:46;10.80;;;5.35;;
12896;SDS011;6516;35.028;32.372;2023-10-13T13:47:14;12.97;;;5.17;;
12896;SDS011;6516;35.028;32.372;2023-10-13T13:49:42;12.65;;;4.93;;
12896;SDS011;6516;35.028;32.372;2023-10-13T13:52:16;11.93;;;4.78;;
12896;SDS011;6516;35.028;32.372;2023-10-13T13:54:47;11.05;;;5.47;;
12896;SDS011;6516;35.028;32.372;2023-10-13T13:57:14;11.88;;;5.57;;
12896;SDS011;6516;35.028;32.372;2023-10-13T13:59:42;10.67;;;5.17;;
12896;SDS011;6516;35.028;32.372;2023-10-13T14:02:10;9.27;;;5.60;;
12896;SDS011;6516;35.028;32.372;2023-10-13T14:04:47;9.68;;;5.10;;
12896;SDS011;6516;35.028;32.372;2023-10-13T14:07:17;15.70;;;5.57;;
12896;SDS011;6516;35.028;32.372;2023-10-13T14:09:48;10.80;;;5.75;;
12896;SDS011;6516;35.028;32.372;2023-10-13T14:12:17;11.63;;;5.63;;
12896;SDS011;6516;35.028;32.372;2023-10-13T14:15:07;10.23;;;5.20;;
12896;SDS011;6516;35.028;32.372;2023-10-13T14:17:45;11.18;;;5.40;;
12896;SDS011;6516;35.028;32.372;2023-10-13T14:20:15;8.40;;;5.03;;
12896;SDS011;6516;35.028;32.372;2023-10-13T14:22:44;10.20;;;5.28;;
12896;SDS011;6516;35.028;32.372;2023-10-13T14:25:13;10.10;;;5.10;;
12896;SDS011;6516;35.028;32.372;2023-10-13T14:27:41;13.57;;;5.40;;
12896;SDS011;6516;35.028;32.372;2023-10-13T14:30:12;10.52;;;5.78;;
12896;SDS011;6516;35.028;32.372;2023-10-13T14:32:44;11.15;;;5.78;;
12896;SDS011;6516;35.028;32.372;2023-10-13T14:35:12;9.05;;;5.53;;
12896;SDS011;6516;35.028;32.372;2023-10-13T14:37:42;12.13;;;5.90;;
12896;SDS011;6516;35.028;32.372;2023-10-13T14:40:10;9.05;;;5.60;;
12896;SDS011;6516;35.028;32.372;2023-10-13T14:42:40;8.10;;;5.20;;
12896;SDS011;6516;35.028;32.372;2023-10-13T14:45:11;10.93;;;5.75;;
12896;SDS011;6516;35.028;32.372;2023-10-13T14:47:41;11.32;;;5.60;;
12896;SDS011;6516;35.028;32.372;2023-10-13T14:50:10;11.60;;;5.80;;
12896;SDS011;6516;35.028;32.372;2023-10-13T14:52:49;10.32;;;5.88;;
12896;SDS011;6516;35.028;32.372;2023-10-13T14:55:17;11.20;;;5.60;;
12896;SDS011;6516;35.028;32.372;2023-10-13T14:58:03;10.15;;;5.63;;
12896;SDS011;6516;35.028;32.372;2023-10-13T15:00:33;11.10;;;6.10;;
12896;SDS011;6516;35.028;32.372;2023-10-13T15:03:01;11.03;;;5.77;;
12896;SDS011;6516;35.028;32.372;2023-10-13T15:05:31;11.85;;;6.05;;
12896;SDS011;6516;35.028;32.372;2023-10-13T15:08:02;12.68;;;6.40;;
12896;SDS011;6516;35.028;32.372;2023-10-13T15:10:31;13.07;;;6.20;;
12896;SDS011;6516;35.028;32.372;2023-10-13T15:13:01;11.50;;;6.00;;
12896;SDS011;6516;35.028;32.372;2023-10-13T15:15:30;10.77;;;6.00;;
12896;SDS011;6516;35.028;32.372;2023-10-13T15:18:01;10.75;;;6.20;;
12896;SDS011;6516;35.028;32.372;2023-10-13T15:20:29;9.45;;;5.68;;
12896;SDS011;6516;35.028;32.372;2023-10-13T15:22:57;8.80;;;5.55;;
12896;SDS011;6516;35.028;32.372;2023-10-13T15:25:27;10.75;;;6.35;;
12896;SDS011;6516;35.028;32.372;2023-10-13T15:28:04;11.07;;;6.50;;